Time;durP1;ratioP1;P1;durP2;ratioP2;P2;SDS_P1;SDS_P2;PMS_P1;PMS_P2;Temp;Humidity;BMP_temperature;BMP_pressure;BME280_temperature;BME280_humidity;BME280_pressure;Samples;Min_cycle;Max_cycle;Signal;HPM_P1;HPM_P2
2021/05/20 00:01:45;;;;;;;31.23;13.95;;;11.00;61.90;;;;;;5042759;28;20048;-66
2021/05/20 00:04:13;;;;;;;29.30;13.88;;;11.00;61.80;;;;;;5047551;28;20052;-66
2021/05/20 00:06:38;;;;;;;33.88;15.02;;;11.00;61.80;;;;;;5050715;28;20047;-65
2021/05/20 00:09:05;;;;;;;25.55;12.82;;;11.00;61.90;;;;;;5051745;28;20032;-65
2021/05/20 00:11:31;;;;;;;27.70;13.93;;;11.00;61.90;;;;;;5043807;28;20514;-65
2021/05/20 00:14:02;;;;;;;29.70;14.05;;;10.90;61.90;;;;;;5056385;28;20132;-66
2021/05/20 00:16:29;;;;;;;30.50;14.63;;;10.90;62.00;;;;;;5051802;28;20144;-66
2021/05/20 00:18:57;;;;;;;36.35;16.48;;;10.90;62.00;;;;;;5045940;28;20086;-65
2021/05/20 00:21:25;;;;;;;30.27;14.05;;;10.90;62.00;;;;;;5044596;28;20028;-65
2021/05/20 00:23:51;;;;;;;29.77;13.70;;;10.80;62.00;;;;;;5055809;28;20508;-65
2021/05/20 00:26:17;;;;;;;32.30;14.68;;;10.80;62.00;;;;;;5063332;28;20040;-66
2021/05/20 00:28:42;;;;;;;34.25;15.77;;;10.80;62.00;;;;;;5049832;28;20028;-66
2021/05/20 00:31:10;;;;;;;37.03;16.05;;;10.80;62.10;;;;;;5047262;28;20298;-66
2021/05/20 00:33:38;;;;;;;36.05;16.02;;;10.80;62.20;;;;;;5047701;28;20083;-65
2021/05/20 00:36:06;;;;;;;40.08;17.98;;;10.80;62.10;;;;;;5056069;28;20040;-65
2021/05/20 00:38:32;;;;;;;39.00;16.75;;;10.80;62.20;;;;;;5046074;28;20049;-65
2021/05/20 00:41:01;;;;;;;37.97;16.35;;;10.80;62.10;;;;;;5048378;28;20448;-66
2021/05/20 00:43:27;;;;;;;41.50;15.73;;;10.80;62.20;;;;;;5049403;28;20341;-66
2021/05/20 00:45:55;;;;;;;32.58;15.65;;;10.80;62.20;;;;;;5052281;28;20028;-65
2021/05/20 00:48:23;;;;;;;36.25;17.08;;;10.70;62.10;;;;;;5048765;28;20109;-65
2021/05/20 00:50:49;;;;;;;23.45;12.45;;;10.70;62.10;;;;;;5056600;28;20686;-65
2021/05/20 00:53:15;;;;;;;29.88;14.98;;;10.70;62.10;;;;;;5054875;28;20037;-65
2021/05/20 00:55:44;;;;;;;29.60;13.10;;;10.70;62.10;;;;;;5039537;28;20043;-66
2021/05/20 00:58:15;;;;;;;42.70;15.02;;;10.60;62.20;;;;;;5052164;28;20374;-65
2021/05/20 01:00:43;;;;;;;32.53;14.23;;;10.60;62.10;;;;;;5051202;28;20040;-65
2021/05/20 01:03:09;;;;;;;31.42;13.60;;;10.60;62.10;;;;;;5051788;28;20043;-65
2021/05/20 01:05:37;;;;;;;30.95;14.85;;;10.60;62.20;;;;;;5051265;28;20041;-65
2021/05/20 01:08:08;;;;;;;42.38;17.38;;;10.50;62.10;;;;;;5050881;28;20707;-65
2021/05/20 01:10:33;;;;;;;52.65;20.13;;;10.50;62.20;;;;;;5052435;28;20127;-64
2021/05/20 01:13:01;;;;;;;52.42;22.08;;;10.50;62.20;;;;;;5043080;28;20845;-65
2021/05/20 01:15:34;;;;;;;51.47;21.02;;;10.50;62.20;;;;;;5043623;28;20048;-65
2021/05/20 01:18:02;;;;;;;50.10;19.30;;;10.50;62.20;;;;;;5046332;28;20399;-66
2021/05/20 01:20:33;;;;;;;35.47;16.15;;;10.50;62.30;;;;;;5047338;28;20417;-66
2021/05/20 01:23:13;;;;;;;40.45;15.85;;;10.50;62.20;;;;;;5044499;28;20047;-65
2021/05/20 01:25:41;;;;;;;42.42;16.52;;;10.50;62.20;;;;;;5048232;28;20056;-65
2021/05/20 01:28:09;;;;;;;37.05;17.63;;;10.50;62.20;;;;;;5049803;28;20040;-66
2021/05/20 01:30:40;;;;;;;44.95;18.85;;;10.40;62.10;;;;;;5052783;28;20102;-66
2021/05/20 01:33:06;;;;;;;41.45;14.80;;;10.40;62.10;;;;;;5046371;28;20039;-65
2021/05/20 01:35:34;;;;;;;42.92;16.77;;;10.40;62.20;;;;;;5047935;28;20041;-64
2021/05/20 01:38:40;;;;;;;49.28;17.38;;;10.40;62.20;;;;;;5041829;28;20036;-66
2021/05/20 01:41:03;;;;;;;49.67;18.83;;;10.30;62.20;;;;;;5047324;28;20124;-65
2021/05/20 01:43:30;;;;;;;47.38;19.63;;;10.40;62.30;;;;;;5052335;28;20044;-66
2021/05/20 01:46:04;;;;;;;47.58;20.52;;;10.30;62.30;;;;;;5057130;28;20037;-66
2021/05/20 01:48:34;;;;;;;43.03;19.20;;;10.30;62.40;;;;;;5049687;28;20040;-65
2021/05/20 01:51:07;;;;;;;44.65;17.30;;;10.30;62.40;;;;;;5055627;28;20040;-66
2021/05/20 01:53:36;;;;;;;45.30;16.92;;;10.30;62.40;;;;;;5050531;28;20036;-65
2021/05/20 01:56:03;;;;;;;48.95;20.42;;;10.30;62.20;;;;;;5052409;28;20041;-65
2021/05/20 01:58:31;;;;;;;57.00;20.48;;;10.30;62.20;;;;;;5048433;28;20036;-65
2021/05/20 02:00:59;;;;;;;50.22;20.60;;;10.30;62.20;;;;;;5048140;28;20041;-66
2021/05/20 02:03:25;;;;;;;51.78;21.90;;;10.30;62.30;;;;;;5046356;28;20116;-66
2021/05/20 02:05:58;;;;;;;60.40;21.02;;;10.30;62.40;;;;;;5049275;28;20067;-65
2021/05/20 02:08:26;;;;;;;58.97;21.90;;;10.30;62.40;;;;;;5056732;28;20486;-66
2021/05/20 02:10:54;;;;;;;55.90;21.05;;;10.30;62.40;;;;;;5046130;28;20041;-66
2021/05/20 02:13:20;;;;;;;51.75;20.52;;;10.30;62.40;;;;;;5045098;28;20619;-66
2021/05/20 02:15:48;;;;;;;52.42;21.27;;;10.30;62.40;;;;;;5041116;28;20037;-65
2021/05/20 02:18:14;;;;;;;57.47;21.33;;;10.30;62.40;;;;;;5049628;28;20039;-65
2021/05/20 02:20:40;;;;;;;56.95;21.35;;;10.30;62.40;;;;;;5045924;28;20040;-65
2021/05/20 02:23:06;;;;;;;55.17;19.73;;;10.30;62.40;;;;;;5041887;28;20036;-66
2021/05/20 02:25:32;;;;;;;52.55;19.13;;;10.30;62.40;;;;;;5046910;28;20048;-65
2021/05/20 02:28:01;;;;;;;40.30;17.02;;;10.20;62.30;;;;;;5043889;28;20465;-65
2021/05/20 02:30:26;;;;;;;43.00;17.63;;;10.20;62.20;;;;;;5051861;28;20044;-65
2021/05/20 02:32:56;;;;;;;49.55;19.70;;;10.20;62.20;;;;;;5051751;28;20040;-65
2021/05/20 02:35:25;;;;;;;48.53;17.83;;;10.20;62.20;;;;;;5053383;28;20043;-65
2021/05/20 02:37:55;;;;;;;33.53;14.07;;;10.10;62.20;;;;;;5046663;28;20098;-66
2021/05/20 02:40:22;;;;;;;33.45;13.82;;;10.10;62.20;;;;;;5042386;28;20044;-65
2021/05/20 02:42:48;;;;;;;40.60;15.43;;;10.10;62.20;;;;;;5049746;28;20082;-65
2021/05/20 02:45:18;;;;;;;30.17;12.38;;;10.00;62.10;;;;;;5048051;28;20048;-66
2021/05/20 02:47:44;;;;;;;35.20;10.98;;;10.00;62.20;;;;;;5051188;28;20049;-65
2021/05/20 02:50:13;;;;;;;86.75;12.07;;;10.00;62.30;;;;;;5060332;28;20048;-65
2021/05/20 02:52:43;;;;;;;59.15;11.57;;;9.90;62.20;;;;;;5046389;28;20193;-65
2021/05/20 02:55:10;;;;;;;104.18;14.95;;;9.90;62.20;;;;;;5045553;28;21074;-65
2021/05/20 02:57:37;;;;;;;200.82;17.15;;;9.90;62.20;;;;;;5051560;28;20059;-64
2021/05/20 03:00:10;;;;;;;54.03;15.68;;;9.80;62.20;;;;;;5050897;28;20051;-65
2021/05/20 03:02:36;;;;;;;42.75;15.18;;;9.80;62.30;;;;;;5045847;28;20043;-65
2021/05/20 03:05:04;;;;;;;35.30;14.82;;;9.80;62.30;;;;;;5051040;28;20048;-65
2021/05/20 03:07:29;;;;;;;42.53;16.25;;;9.80;62.30;;;;;;5053081;28;20067;-65
2021/05/20 03:09:57;;;;;;;49.67;18.95;;;9.70;62.20;;;;;;5054569;28;20613;-65
2021/05/20 03:12:23;;;;;;;51.35;19.15;;;9.70;62.20;;;;;;5046595;28;20098;-66
2021/05/20 03:14:53;;;;;;;46.80;18.73;;;9.70;62.20;;;;;;5045650;28;20052;-65
2021/05/20 03:17:18;;;;;;;40.05;17.17;;;9.70;62.30;;;;;;5047803;28;20630;-65
2021/05/20 03:19:47;;;;;;;54.90;18.88;;;9.70;62.30;;;;;;5043363;28;20041;-65
2021/05/20 03:22:17;;;;;;;46.13;17.67;;;9.70;62.40;;;;;;5049334;28;20484;-65
2021/05/20 03:24:45;;;;;;;47.58;18.40;;;9.70;62.30;;;;;;5049663;28;20033;-66
2021/05/20 03:27:13;;;;;;;48.58;18.42;;;9.70;62.40;;;;;;5050456;28;20123;-66
2021/05/20 03:29:41;;;;;;;34.58;16.25;;;9.60;62.30;;;;;;5046343;28;20068;-66
2021/05/20 03:32:09;;;;;;;29.15;12.13;;;9.60;62.40;;;;;;5042016;28;20037;-65
2021/05/20 03:34:34;;;;;;;70.43;15.20;;;9.60;62.40;;;;;;5044773;28;20410;-66
2021/05/20 03:37:00;;;;;;;43.05;14.45;;;9.60;62.40;;;;;;5052576;28;20028;-65
2021/05/20 03:39:25;;;;;;;35.88;13.68;;;9.60;62.40;;;;;;5047074;28;20041;-66
2021/05/20 03:41:53;;;;;;;25.42;11.63;;;9.60;62.40;;;;;;5047640;28;20033;-65
2021/05/20 03:44:23;;;;;;;23.10;12.25;;;9.50;62.40;;;;;;5041714;28;20039;-65
2021/05/20 03:46:49;;;;;;;33.85;14.55;;;9.50;62.50;;;;;;5046569;28;20114;-65
2021/05/20 03:49:17;;;;;;;39.60;15.10;;;9.50;62.50;;;;;;5049955;28;20048;-65
2021/05/20 03:51:46;;;;;;;25.95;13.60;;;9.50;62.60;;;;;;5043228;28;20041;-65
2021/05/20 03:54:13;;;;;;;29.08;13.05;;;9.50;62.70;;;;;;5038659;28;20094;-66
2021/05/20 03:56:39;;;;;;;28.75;13.30;;;9.50;62.70;;;;;;5043365;28;20051;-65
2021/05/20 03:59:06;;;;;;;44.00;17.40;;;9.50;62.80;;;;;;5046299;28;20565;-65
2021/05/20 04:01:32;;;;;;;38.58;16.60;;;9.50;62.70;;;;;;5043821;28;20036;-65
2021/05/20 04:03:58;;;;;;;47.50;16.35;;;9.50;62.80;;;;;;5043690;28;20032;-66
2021/05/20 04:06:26;;;;;;;42.15;17.60;;;9.60;63.00;;;;;;5041012;28;20059;-65
2021/05/20 04:08:51;;;;;;;35.10;17.10;;;9.60;63.00;;;;;;5038540;28;20155;-65
2021/05/20 04:11:17;;;;;;;33.95;16.70;;;9.60;63.10;;;;;;5046929;28;20043;-65
2021/05/20 04:13:44;;;;;;;42.08;19.35;;;9.60;63.10;;;;;;5043733;28;20029;-65
2021/05/20 04:16:13;;;;;;;49.10;18.77;;;9.70;63.20;;;;;;5056186;28;20059;-65
2021/05/20 04:18:40;;;;;;;44.25;17.90;;;9.70;63.20;;;;;;5056058;28;20076;-65
2021/05/20 04:21:08;;;;;;;60.83;22.27;;;9.80;63.30;;;;;;5078492;28;20123;-65
2021/05/20 04:23:36;;;;;;;49.67;20.20;;;9.80;63.40;;;;;;5054707;28;20036;-65
2021/05/20 04:26:02;;;;;;;46.20;19.95;;;9.90;63.50;;;;;;5052977;28;20190;-65
2021/05/20 04:28:27;;;;;;;55.65;22.90;;;9.90;63.50;;;;;;5057079;28;20040;-65
2021/05/20 04:30:55;;;;;;;78.80;28.55;;;9.90;63.50;;;;;;5051103;28;20040;-65
2021/05/20 04:33:26;;;;;;;67.53;26.25;;;10.00;63.60;;;;;;5056903;28;20158;-65
2021/05/20 04:35:51;;;;;;;61.63;25.92;;;10.10;63.80;;;;;;5051687;28;20594;-65
2021/05/20 04:38:19;;;;;;;60.13;22.70;;;10.20;63.80;;;;;;5054878;28;20044;-65
2021/05/20 04:40:49;;;;;;;102.25;33.67;;;10.30;63.90;;;;;;5057449;28;20041;-65
2021/05/20 04:43:17;;;;;;;87.38;29.48;;;10.30;63.90;;;;;;5055665;28;20078;-65
2021/05/20 04:45:46;;;;;;;92.57;31.80;;;10.40;64.00;;;;;;5053853;27;20052;-65
2021/05/20 04:48:11;;;;;;;99.68;34.75;;;10.50;64.00;;;;;;5055319;28;20059;-65
2021/05/20 04:50:37;;;;;;;114.90;37.65;;;10.60;64.10;;;;;;5053039;28;20041;-65
2021/05/20 04:53:03;;;;;;;115.35;38.65;;;10.60;64.20;;;;;;5052908;28;20029;-66
2021/05/20 04:55:28;;;;;;;119.07;41.15;;;10.70;64.20;;;;;;5052036;28;20225;-65
2021/05/20 04:57:54;;;;;;;113.18;40.55;;;10.90;64.40;;;;;;5056335;28;20146;-66
2021/05/20 05:00:20;;;;;;;114.45;39.03;;;10.90;64.40;;;;;;5045758;28;20068;-65
2021/05/20 05:02:46;;;;;;;119.97;38.33;;;11.00;64.40;;;;;;5044286;28;20451;-66
2021/05/20 05:05:12;;;;;;;104.47;37.17;;;11.10;64.30;;;;;;5040058;28;20041;-65
2021/05/20 05:07:37;;;;;;;121.90;40.40;;;11.20;64.40;;;;;;5066417;28;20140;-65
2021/05/20 05:10:05;;;;;;;145.98;45.10;;;11.30;64.50;;;;;;5046287;28;20473;-65
2021/05/20 05:12:36;;;;;;;143.40;45.08;;;11.40;64.70;;;;;;5045318;28;20339;-65
2021/05/20 05:15:01;;;;;;;143.70;46.50;;;11.50;64.70;;;;;;5046756;28;20041;-65
2021/05/20 05:17:29;;;;;;;143.13;43.90;;;11.60;64.80;;;;;;5050005;28;20517;-65
2021/05/20 05:19:55;;;;;;;156.68;47.28;;;11.60;64.70;;;;;;5053748;28;20032;-66
2021/05/20 05:22:23;;;;;;;151.57;48.17;;;11.70;64.80;;;;;;5057031;28;20398;-66
2021/05/20 05:24:49;;;;;;;151.40;48.30;;;11.80;64.80;;;;;;5061217;28;20072;-65
2021/05/20 05:27:15;;;;;;;148.00;49.75;;;12.00;65.00;;;;;;5057748;28;20059;-65
2021/05/20 05:29:43;;;;;;;167.95;49.70;;;12.20;65.20;;;;;;5058037;28;20033;-65
2021/05/20 05:32:08;;;;;;;167.13;52.35;;;12.40;64.90;;;;;;5062789;28;20040;-65
2021/05/20 05:34:37;;;;;;;153.25;50.92;;;12.60;65.00;;;;;;5062142;28;20032;-66
2021/05/20 05:37:03;;;;;;;162.98;53.28;;;12.70;64.80;;;;;;5060743;28;20490;-65
2021/05/20 05:39:29;;;;;;;150.50;51.97;;;12.80;64.80;;;;;;5053553;28;20403;-66
2021/05/20 05:41:54;;;;;;;166.90;55.13;;;13.00;65.30;;;;;;5032835;28;20036;-66
2021/05/20 05:44:25;;;;;;;156.25;54.05;;;13.20;65.30;;;;;;5062381;28;20040;-66
2021/05/20 05:46:50;;;;;;;151.52;54.72;;;13.40;65.00;;;;;;5048606;28;20505;-66
2021/05/20 05:49:19;;;;;;;173.00;59.08;;;13.60;65.00;;;;;;5047056;28;20041;-67
2021/05/20 05:51:54;;;;;;;188.18;75.13;;;13.90;65.30;;;;;;5050125;28;20551;-66
2021/05/20 05:54:20;;;;;;;165.43;77.82;;;14.30;66.80;;;;;;5053297;28;20040;-66
2021/05/20 05:56:45;;;;;;;94.78;53.30;;;15.70;67.00;;;;;;5049646;28;20025;-66
2021/05/20 05:59:11;;;;;;;60.03;37.55;;;16.50;65.00;;;;;;5050220;28;20049;-66
2021/05/20 06:01:38;;;;;;;61.53;38.95;;;17.10;62.70;;;;;;5046708;28;20413;-66
2021/05/20 06:04:08;;;;;;;65.13;40.90;;;17.40;62.50;;;;;;5051552;28;20517;-67
2021/05/20 06:06:36;;;;;;;42.65;30.40;;;18.50;62.80;;;;;;5054862;28;20559;-66
2021/05/20 06:09:05;;;;;;;28.73;22.15;;;20.00;60.00;;;;;;5049649;28;21238;-67
2021/05/20 06:11:31;;;;;;;27.60;19.35;;;;;;;;;;5054937;28;20478;-65
2021/05/20 06:14:01;;;;;;;25.30;18.35;;;;;;;;;;5057981;28;20033;-67
2021/05/20 06:16:27;;;;;;;21.02;15.93;;;;;;;;;;5055244;28;20124;-67
2021/05/20 06:18:55;;;;;;;24.45;15.98;;;21.50;56.00;;;;;;5040977;28;20033;-67
2021/05/20 06:21:23;;;;;;;21.55;15.68;;;23.50;50.00;;;;;;5053334;28;20612;-67
2021/05/20 06:23:49;;;;;;;21.10;14.70;;;;;;;;;;5052226;28;20028;-67
2021/05/20 06:26:17;;;;;;;20.10;14.07;;;;;;;;;;5047668;28;20048;-68
2021/05/20 06:28:43;;;;;;;23.50;15.10;;;;;;;;;;5053029;28;20029;-67
2021/05/20 06:31:09;;;;;;;20.58;15.25;;;;;;;;;;5051740;28;20036;-67
2021/05/20 06:33:37;;;;;;;23.98;16.80;;;;;;;;;;5052748;28;20094;-67
2021/05/20 06:36:04;;;;;;;25.60;16.88;;;;;;;;;;5050504;28;20521;-68
2021/05/20 06:38:32;;;;;;;27.95;17.15;;;23.60;49.30;;;;;;5048572;28;20071;-67
2021/05/20 06:40:59;;;;;;;25.25;16.88;;;23.90;42.90;;;;;;5054061;28;20067;-67
2021/05/20 06:43:24;;;;;;;24.80;17.05;;;23.10;43.00;;;;;;5056575;28;21867;-67
2021/05/20 06:45:53;;;;;;;28.48;19.35;;;;;;;;;;5046763;28;20033;-68
2021/05/20 06:48:18;;;;;;;25.20;18.27;;;22.50;44.50;;;;;;5042870;28;20557;-68
2021/05/20 06:50:44;;;;;;;23.90;17.85;;;21.50;46.50;;;;;;5044375;28;20052;-68
2021/05/20 06:53:10;;;;;;;25.83;18.25;;;21.20;47.80;;;;;;5050667;28;20033;-67
2021/05/20 06:55:38;;;;;;;30.65;18.13;;;21.00;48.30;;;;;;5049193;28;20037;-67
2021/05/20 07:00:31;;;;;;;25.80;18.10;;;20.40;49.30;;;;;;5049207;28;20040;-67
2021/05/20 07:03:00;;;;;;;26.58;18.20;;;20.20;49.70;;;;;;5056468;28;20043;-67
2021/05/20 07:05:28;;;;;;;24.90;18.92;;;20.00;50.20;;;;;;5056282;28;20032;-67
2021/05/20 07:07:54;;;;;;;28.20;19.88;;;19.90;50.70;;;;;;5049249;28;20039;-67
2021/05/20 07:10:19;;;;;;;25.98;19.67;;;19.80;50.90;;;;;;5052273;28;20045;-67
2021/05/20 07:12:52;;;;;;;26.73;19.00;;;19.70;50.80;;;;;;5049974;28;20036;-67
2021/05/20 07:15:20;;;;;;;25.58;20.20;;;19.50;51.10;;;;;;5049407;28;20047;-66
2021/05/20 07:17:45;;;;;;;29.23;19.42;;;19.40;51.70;;;;;;5046955;28;20036;-67
2021/05/20 07:20:11;;;;;;;29.63;19.40;;;19.40;51.90;;;;;;5058035;28;20430;-67
2021/05/20 07:22:37;;;;;;;24.05;18.27;;;19.30;51.90;;;;;;5049262;28;20104;-67
2021/05/20 07:25:05;;;;;;;21.73;16.65;;;19.20;52.20;;;;;;5057536;28;20048;-66
2021/05/20 07:27:35;;;;;;;26.27;16.75;;;19.70;53.60;;;;;;5049330;28;20093;-65
2021/05/20 07:30:01;;;;;;;20.63;14.95;;;20.70;53.00;;;;;;5050509;28;20112;-66
2021/05/20 07:32:27;;;;;;;18.77;13.60;;;22.30;50.00;;;;;;5056257;28;20124;-67
2021/05/20 07:34:53;;;;;;;20.98;14.20;;;23.00;46.50;;;;;;5053298;28;20044;-67
2021/05/20 07:37:21;;;;;;;20.88;14.57;;;23.00;45.40;;;;;;5051515;28;20128;-67
2021/05/20 07:39:49;;;;;;;19.80;15.20;;;22.50;45.10;;;;;;5050084;28;20064;-66
2021/05/20 07:42:17;;;;;;;20.27;14.05;;;22.10;46.60;;;;;;5051774;28;20040;-67
2021/05/20 07:44:46;;;;;;;12.43;9.95;;;22.10;47.40;;;;;;5051013;28;20060;-67
2021/05/20 07:47:12;;;;;;;11.30;9.05;;;;;;;;;;5056472;28;20149;-67
2021/05/20 07:49:41;;;;;;;12.13;9.20;;;;;;;;;;5045098;28;20082;-67
2021/05/20 07:52:07;;;;;;;12.35;8.57;;;;;;;;;;5055365;28;20513;-67
2021/05/20 07:54:36;;;;;;;12.57;7.28;;;;;;;;;;5056497;28;20032;-66
2021/05/20 07:57:02;;;;;;;10.77;8.15;;;;;;;;;;5056145;28;20032;-67
2021/05/20 07:59:28;;;;;;;11.00;8.38;;;;;;;;;;5051307;28;20086;-67
2021/05/20 08:02:22;;;;;;;9.27;8.07;;;;;;;;;;5058981;28;20044;-67
2021/05/20 08:04:41;;;;;;;13.02;8.88;;;;;;;;;;5055496;28;20124;-66
2021/05/20 08:07:23;;;;;;;10.50;8.60;;;;;;;;;;5061115;28;20037;-67
2021/05/20 08:12:48;;;;;;;9.05;6.85;;;22.90;46.40;;;;;;5022819;28;20032;-67
2021/05/20 08:15:14;;;;;;;9.45;6.60;;;;;;;;;;5051403;28;20043;-67
2021/05/20 08:17:40;;;;;;;8.23;6.97;;;;;;;;;;5061813;28;20498;-67
2021/05/20 08:20:07;;;;;;;8.45;7.20;;;;;;;;;;5051611;28;20025;-66
2021/05/20 08:22:33;;;;;;;7.20;6.50;;;27.50;36.30;;;;;;5051554;28;20580;-67
2021/05/20 08:24:59;;;;;;;8.13;5.78;;;;;;;;;;5048084;28;20032;-67
2021/05/20 08:27:25;;;;;;;8.02;5.63;;;;;;;;;;5047735;28;20110;-68
2021/05/20 08:29:51;;;;;;;8.23;5.80;;;;;;;;;;5054345;28;20151;-67
2021/05/20 08:32:17;;;;;;;6.95;6.25;;;;;;;;;;5059362;28;20033;-67
2021/05/20 08:34:43;;;;;;;8.02;6.55;;;;;;;;;;5056075;28;20119;-67
2021/05/20 08:37:09;;;;;;;14.18;5.75;;;;;;;;;;5054468;28;20143;-67
2021/05/20 08:39:35;;;;;;;7.60;5.35;;;;;;;;;;5053410;28;20029;-67
2021/05/20 08:42:03;;;;;;;9.88;4.80;;;27.10;36.20;;;;;;5049171;28;20036;-67
2021/05/20 08:44:32;;;;;;;9.00;5.22;;;32.20;28.50;;;;;;5052512;28;20036;-67
2021/05/20 08:46:58;;;;;;;7.72;5.30;;;31.70;28.40;;;;;;5048630;28;20044;-67
2021/05/20 08:49:25;;;;;;;7.05;4.88;;;31.40;29.00;;;;;;5039673;28;20033;-67
2021/05/20 08:51:52;;;;;;;7.72;4.95;;;30.80;28.90;;;;;;5047574;28;20036;-67
2021/05/20 08:54:21;;;;;;;6.40;5.07;;;30.40;29.20;;;;;;5052177;28;20037;-67
2021/05/20 08:56:51;;;;;;;5.68;4.80;;;30.40;29.10;;;;;;5054595;28;20492;-67
2021/05/20 08:59:18;;;;;;;9.30;5.30;;;31.00;28.10;;;;;;5051963;28;20093;-67
2021/05/20 09:01:45;;;;;;;6.95;4.57;;;31.80;28.30;;;;;;5056061;28;20039;-67
2021/05/20 09:04:11;;;;;;;8.60;3.83;;;32.90;27.30;;;;;;5054767;28;20042;-67
2021/05/20 09:07:04;;;;;;;4.93;3.97;;;33.00;26.90;;;;;;5062666;28;20094;-66
2021/05/20 09:09:34;;;;;;;8.63;4.15;;;32.10;27.00;;;;;;5054237;28;20040;-66
2021/05/20 09:12:03;;;;;;;8.73;4.15;;;31.40;27.60;;;;;;5056418;28;20043;-66
2021/05/20 09:14:32;;;;;;;4.40;3.08;;;31.60;27.70;;;;;;5050767;28;20037;-67
2021/05/20 09:17:10;;;;;;;11.95;3.58;;;32.40;27.10;;;;;;5052259;28;20044;-67
2021/05/20 09:19:38;;;;;;;4.85;3.65;;;33.40;27.20;;;;;;5045047;28;20494;-67
2021/05/20 09:22:05;;;;;;;6.25;3.35;;;;;;;;;;5056132;28;20041;-66
2021/05/20 09:24:50;;;;;;;4.50;3.33;;;;;;;;;;5071155;28;20114;-65
2021/05/20 09:27:42;;;;;;;7.50;4.72;;;;;;;;;;5056223;28;20040;-66
2021/05/20 09:30:15;;;;;;;8.65;4.30;;;34.20;26.10;;;;;;5054015;28;20052;-66
2021/05/20 09:32:51;;;;;;;7.50;4.88;;;29.80;28.50;;;;;;5050837;28;20056;-65
2021/05/20 09:35:21;;;;;;;10.55;5.07;;;28.40;29.50;;;;;;5057478;28;20028;-66
2021/05/20 09:37:48;;;;;;;7.93;4.97;;;;;;;;;;5045508;28;20581;-66
2021/05/20 09:40:14;;;;;;;6.15;4.65;;;;;;;;;;5053545;28;20044;-66
2021/05/20 09:42:41;;;;;;;8.95;5.18;;;;;;;;;;5057389;28;20043;-66
2021/05/20 09:45:13;;;;;;;5.07;3.88;;;27.30;31.00;;;;;;5050301;28;20293;-66
2021/05/20 09:47:39;;;;;;;11.02;4.38;;;;;;;;;;5053754;28;20129;-66
2021/05/20 09:50:09;;;;;;;10.25;5.50;;;;;;;;;;5049442;28;20034;-66
2021/05/20 09:52:38;;;;;;;7.10;4.70;;;;;;;;;;5059740;28;20028;-66
2021/05/20 09:55:19;;;;;;;7.10;4.60;;;28.50;31.80;;;;;;5055531;28;20040;-66
2021/05/20 09:57:45;;;;;;;6.72;4.70;;;29.30;30.00;;;;;;5058769;28;20039;-66
2021/05/20 10:00:16;;;;;;;5.30;4.05;;;30.20;29.90;;;;;;5058341;28;20045;-66
2021/05/20 10:02:47;;;;;;;4.80;3.17;;;31.30;28.60;;;;;;5060062;28;20525;-67
2021/05/20 10:05:34;;;;;;;9.82;3.05;;;32.40;27.40;;;;;;5061443;28;20036;-66
2021/05/20 10:08:01;;;;;;;5.80;3.35;;;;;;;;;;5052539;28;20032;-67
2021/05/20 10:10:30;;;;;;;5.07;3.30;;;;;;;;;;5059867;28;20086;-66
2021/05/20 10:12:58;;;;;;;7.70;3.30;;;;;;;;;;5060041;28;20047;-66
2021/05/20 10:15:31;;;;;;;3.53;3.20;;;33.30;26.60;;;;;;5056831;28;20074;-67
2021/05/20 10:18:04;;;;;;;5.68;2.83;;;34.20;24.70;;;;;;5053504;28;20106;-67
2021/05/20 10:20:34;;;;;;;4.60;2.42;;;34.20;24.20;;;;;;5058868;28;20155;-66
2021/05/20 10:23:02;;;;;;;3.60;2.95;;;34.30;23.40;;;;;;5062430;28;20039;-66
2021/05/20 10:25:30;;;;;;;6.85;3.22;;;33.80;23.50;;;;;;5053779;28;20095;-67
2021/05/20 10:27:56;;;;;;;3.35;2.35;;;;;;;;;;5053559;28;20173;-66
2021/05/20 10:30:23;;;;;;;5.85;2.33;;;;;;;;;;5052733;28;20476;-67
2021/05/20 10:32:54;;;;;;;6.15;1.70;;;;;;;;;;5058900;28;20439;-66
2021/05/20 10:35:22;;;;;;;4.45;2.00;;;33.30;25.40;;;;;;5060006;28;20240;-66
2021/05/20 10:37:54;;;;;;;3.13;2.15;;;;;;;;;;5057509;28;20035;-66
2021/05/20 10:40:20;;;;;;;3.95;2.47;;;;;;;;;;5073067;28;20144;-66
2021/05/20 10:42:46;;;;;;;3.95;2.60;;;31.00;25.40;;;;;;5056321;28;20116;-67
2021/05/20 10:45:23;;;;;;;6.55;2.33;;;;;;;;;;5057209;28;20161;-65
2021/05/20 10:48:08;;;;;;;5.03;2.13;;;29.40;28.30;;;;;;5058037;28;20332;-66
2021/05/20 10:50:48;;;;;;;4.40;2.08;;;29.30;28.50;;;;;;5062203;28;20058;-66
2021/05/20 10:53:51;;;;;;;5.82;2.85;;;29.40;28.30;;;;;;5061206;28;20041;-66
2021/05/20 10:56:28;;;;;;;2.83;2.15;;;29.50;27.40;;;;;;5054663;28;20157;-66
2021/05/20 10:58:53;;;;;;;3.25;2.17;;;29.40;29.50;;;;;;5049345;28;20409;-66
2021/05/20 11:01:26;;;;;;;7.35;2.70;;;29.40;29.30;;;;;;5055528;28;20040;-66
2021/05/20 11:03:57;;;;;;;3.83;2.72;;;28.90;28.30;;;;;;5054570;28;20036;-65
2021/05/20 11:06:46;;;;;;;7.70;2.83;;;28.10;29.60;;;;;;5053848;28;20098;-65
2021/05/20 11:09:15;;;;;;;4.18;2.80;;;27.40;31.10;;;;;;5050256;28;20040;-65
2021/05/20 11:11:41;;;;;;;6.35;3.10;;;27.20;31.30;;;;;;5056070;28;20425;-66
2021/05/20 11:14:12;;;;;;;3.92;1.42;;;27.10;31.30;;;;;;5061594;28;20028;-66
2021/05/20 11:16:39;;;;;;;3.25;1.73;;;27.00;30.50;;;;;;5058391;28;20028;-65
2021/05/20 11:19:24;;;;;;;5.90;2.35;;;;;;;;;;5050263;28;20041;-65
2021/05/20 11:21:56;;;;;;;4.50;1.80;;;;;;;;;;5051482;28;20119;-65
2021/05/20 11:24:26;;;;;;;3.22;1.40;;;;;;;;;;5058327;28;20502;-65
2021/05/20 11:26:55;;;;;;;4.20;2.22;;;;;;;;;;5061247;28;20032;-65
2021/05/20 11:29:28;;;;;;;8.13;2.58;;;;;;;;;;5043284;28;20154;-65
2021/05/20 11:31:58;;;;;;;3.85;2.90;;;;;;;;;;5035338;28;20183;-65
2021/05/20 11:34:36;;;;;;;3.92;2.88;;;;;;;;;;5048013;28;20360;-65
2021/05/20 11:37:03;;;;;;;7.97;3.28;;;;;;;;;;5045676;28;20040;-65
2021/05/20 11:39:29;;;;;;;6.22;2.72;;;;;;;;;;5043883;28;20151;-65
2021/05/20 11:41:57;;;;;;;4.13;3.20;;;;;;;;;;5047827;28;20037;-65
2021/05/20 11:44:25;;;;;;;7.50;3.45;;;;;;;;;;5044189;28;20439;-65
2021/05/20 11:47:08;;;;;;;6.13;2.47;;;;;;;;;;5039806;28;20032;-65
2021/05/20 11:49:37;;;;;;;2.35;2.08;;;;;;;;;;5037698;28;20158;-65
2021/05/20 11:52:06;;;;;;;2.55;2.22;;;;;;;;;;5043412;28;20047;-65
2021/05/20 11:54:33;;;;;;;6.75;2.40;;;;;;;;;;5046806;28;20548;-65
2021/05/20 11:57:02;;;;;;;3.58;2.20;;;26.90;30.10;;;;;;5050475;28;20037;-65
2021/05/20 11:59:35;;;;;;;3.95;2.38;;;27.00;29.90;;;;;;5031278;28;20163;-65
2021/05/20 12:02:02;;;;;;;3.78;2.63;;;27.10;29.60;;;;;;5040566;28;20044;-65
2021/05/20 12:04:27;;;;;;;2.67;2.30;;;27.10;29.30;;;;;;5046308;28;20028;-65
2021/05/20 12:06:53;;;;;;;4.65;2.50;;;27.10;29.40;;;;;;5045986;28;20033;-66
2021/05/20 12:09:19;;;;;;;4.28;2.20;;;27.10;30.00;;;;;;5041515;28;20040;-65
2021/05/20 12:11:48;;;;;;;3.17;1.95;;;27.20;29.70;;;;;;5048297;28;20112;-65
2021/05/20 12:14:32;;;;;;;3.88;2.22;;;27.20;29.30;;;;;;5052831;28;20401;-65
2021/05/20 12:17:07;;;;;;;2.50;2.03;;;26.90;28.80;;;;;;5050036;28;20556;-66
2021/05/20 12:19:36;;;;;;;4.90;2.05;;;;;;;;;;5049329;28;20055;-64
2021/05/20 12:22:34;;;;;;;7.75;2.28;;;;;;;;;;5058094;28;20402;-65
2021/05/20 12:25:09;;;;;;;4.47;2.53;;;26.60;29.70;;;;;;5049150;28;20055;-65
2021/05/20 12:27:46;;;;;;;2.88;2.10;;;26.80;29.50;;;;;;5050513;28;20455;-66
2021/05/20 12:30:29;;;;;;;4.18;2.28;;;26.70;30.60;;;;;;5068454;28;20557;-65
2021/05/20 12:33:07;;;;;;;5.05;1.90;;;26.60;30.00;;;;;;5055339;28;20314;-65
2021/05/20 12:35:39;;;;;;;2.28;1.80;;;;;;;;;;5059410;28;20517;-65
2021/05/20 12:38:12;;;;;;;5.90;2.30;;;26.70;29.90;;;;;;5046325;28;20033;-65
2021/05/20 12:40:44;;;;;;;4.07;1.90;;;27.10;30.20;;;;;;5051896;28;20066;-65
2021/05/20 12:43:15;;;;;;;2.15;1.73;;;27.10;28.80;;;;;;5055242;28;20528;-65
2021/05/20 12:46:06;;;;;;;2.50;1.63;;;27.10;28.30;;;;;;5052374;28;20445;-65
2021/05/20 12:48:38;;;;;;;4.45;1.98;;;27.10;29.40;;;;;;5046481;28;20051;-66
2021/05/20 12:51:24;;;;;;;3.85;1.65;;;27.00;28.90;;;;;;5046523;28;20044;-65
2021/05/20 12:53:58;;;;;;;3.28;1.13;;;26.60;30.00;;;;;;5043090;28;20043;-65
2021/05/20 12:56:28;;;;;;;3.53;1.60;;;26.60;29.30;;;;;;5050599;28;20123;-65
2021/05/20 12:59:14;;;;;;;2.75;1.50;;;;;;;;;;5039933;28;20036;-65
2021/05/20 13:01:50;;;;;;;2.28;1.40;;;26.70;28.40;;;;;;5042732;28;20561;-65
2021/05/20 13:04:32;;;;;;;2.58;1.00;;;26.50;29.30;;;;;;5046925;28;20109;-65
2021/05/20 13:07:05;;;;;;;1.27;0.90;;;26.50;27.50;;;;;;5046424;28;20665;-65
2021/05/20 13:09:33;;;;;;;1.20;1.10;;;26.50;29.10;;;;;;5038899;28;20060;-65
2021/05/20 13:12:13;;;;;;;1.50;0.80;;;26.60;28.60;;;;;;5053069;28;20371;-66